Startpagina
METAR-TAF:

METAR-TAF

Vliegvelden :

Mysore, India

breedte: 12-13-48N, lengte: 76-39-21E, hoogte: 715 m

Actueel weer

Dit bericht is 15 uur en het 23 minuten geleden gemaakt, om 15:00 UTC
Weinig wind
Temperatuur 26°C
Vochtigheid 65%
Druk 1018 hPa
Zicht: 6000 m
Weinig wolken op 1500 ft

METAR: VOMY 131500Z 00000KT 6000 FEW015 26/19 Q1018

Tijdstip: 11:53 (06:23 UTC)

Verwachting

Dit bericht is 1 uur en het 23 minuten geleden gemaakt, om 05:00 UTC
Verwachting geldig van 14 om 06 UTC tot 14 om 15 UTC
Wind 5 kt uit het oosten
Zicht: 6000 m
Weinig wolken op 1500 ft

TAF: VOMY 140500Z 1406/1415 09005KT 6000 FEW015

Waarnemingen en weersverwachtingen van meer dan 4000 vliegvelden (METAR en TAF).

De beschikbare stations zijn de gele en rode punten op de kaart.

Ga met uw muis naar het station om de naam te zien.

Klik dan om waarnemingen en weersverwachtingen te zien.

kaart wijzigen: klik op de groene knoppen met een zwart kruis om in te zoomen, op de groene knop met een streepje om uit te zoomen of op de groene pijlen voor aangrenzende kaarten.


METAR-TAF: